sensor_id;sensor_type;location;lat;lon;timestamp;P1;durP1;ratioP1;P2;durP2;ratioP2
21190;SDS011;10753;52.304;20.990;2022-08-01T00:00:28;7.78;;;4.75;;
21190;SDS011;10753;52.304;20.990;2022-08-01T00:02:54;6.43;;;4.75;;
21190;SDS011;10753;52.304;20.990;2022-08-01T00:05:20;8.07;;;4.85;;
21190;SDS011;10753;52.304;20.990;2022-08-01T00:07:46;5.00;;;4.15;;
21190;SDS011;10753;52.304;20.990;2022-08-01T00:10:12;7.95;;;4.38;;
21190;SDS011;10753;52.304;20.990;2022-08-01T00:12:39;6.05;;;4.60;;
21190;SDS011;10753;52.304;20.990;2022-08-01T00:15:05;6.60;;;4.68;;
21190;SDS011;10753;52.304;20.990;2022-08-01T00:17:32;8.65;;;5.18;;
21190;SDS011;10753;52.304;20.990;2022-08-01T00:19:58;6.05;;;4.97;;
21190;SDS011;10753;52.304;20.990;2022-08-01T00:22:24;8.52;;;4.72;;
21190;SDS011;10753;52.304;20.990;2022-08-01T00:24:49;6.35;;;4.60;;
21190;SDS011;10753;52.304;20.990;2022-08-01T00:27:15;8.45;;;5.63;;
21190;SDS011;10753;52.304;20.990;2022-08-01T00:29:41;5.25;;;4.47;;
21190;SDS011;10753;52.304;20.990;2022-08-01T00:32:06;10.23;;;4.75;;
21190;SDS011;10753;52.304;20.990;2022-08-01T00:34:32;6.60;;;4.50;;
21190;SDS011;10753;52.304;20.990;2022-08-01T00:36:58;9.30;;;5.25;;
21190;SDS011;10753;52.304;20.990;2022-08-01T00:39:24;6.07;;;4.70;;
21190;SDS011;10753;52.304;20.990;2022-08-01T00:41:49;8.23;;;5.18;;
21190;SDS011;10753;52.304;20.990;2022-08-01T00:44:15;10.43;;;5.32;;
21190;SDS011;10753;52.304;20.990;2022-08-01T00:46:40;8.02;;;5.22;;
21190;SDS011;10753;52.304;20.990;2022-08-01T00:49:06;7.82;;;5.47;;
21190;SDS011;10753;52.304;20.990;2022-08-01T00:51:32;7.57;;;5.22;;
21190;SDS011;10753;52.304;20.990;2022-08-01T00:53:58;8.70;;;5.45;;
21190;SDS011;10753;52.304;20.990;2022-08-01T00:56:25;5.78;;;4.72;;
21190;SDS011;10753;52.304;20.990;2022-08-01T00:58:52;11.73;;;5.40;;
21190;SDS011;10753;52.304;20.990;2022-08-01T01:01:19;11.10;;;5.65;;
21190;SDS011;10753;52.304;20.990;2022-08-01T01:03:46;7.60;;;5.70;;
21190;SDS011;10753;52.304;20.990;2022-08-01T01:06:22;10.77;;;5.85;;
21190;SDS011;10753;52.304;20.990;2022-08-01T01:12:02;10.68;;;6.05;;
21190;SDS011;10753;52.304;20.990;2022-08-01T01:17:39;14.32;;;6.30;;
21190;SDS011;10753;52.304;20.990;2022-08-01T01:20:12;6.03;;;5.47;;
21190;SDS011;10753;52.304;20.990;2022-08-01T01:25:23;10.90;;;6.32;;
21190;SDS011;10753;52.304;20.990;2022-08-01T01:30:46;9.38;;;5.57;;
21190;SDS011;10753;52.304;20.990;2022-08-01T01:33:15;12.32;;;5.90;;
21190;SDS011;10753;52.304;20.990;2022-08-01T01:35:50;7.55;;;6.63;;
21190;SDS011;10753;52.304;20.990;2022-08-01T01:38:22;8.65;;;6.07;;
21190;SDS011;10753;52.304;20.990;2022-08-01T01:40:50;9.45;;;6.28;;
21190;SDS011;10753;52.304;20.990;2022-08-01T01:43:17;10.43;;;6.47;;
21190;SDS011;10753;52.304;20.990;2022-08-01T01:45:45;13.35;;;7.53;;
21190;SDS011;10753;52.304;20.990;2022-08-01T01:48:13;10.95;;;6.30;;
21190;SDS011;10753;52.304;20.990;2022-08-01T01:50:42;11.15;;;7.53;;
21190;SDS011;10753;52.304;20.990;2022-08-01T01:53:10;9.90;;;7.43;;
21190;SDS011;10753;52.304;20.990;2022-08-01T01:55:39;10.85;;;7.15;;
21190;SDS011;10753;52.304;20.990;2022-08-01T01:58:06;12.35;;;6.65;;
21190;SDS011;10753;52.304;20.990;2022-08-01T02:00:33;11.98;;;6.93;;
21190;SDS011;10753;52.304;20.990;2022-08-01T02:03:01;10.88;;;7.60;;
21190;SDS011;10753;52.304;20.990;2022-08-01T02:05:28;10.55;;;6.55;;
21190;SDS011;10753;52.304;20.990;2022-08-01T02:07:55;8.80;;;6.82;;
21190;SDS011;10753;52.304;20.990;2022-08-01T02:10:22;11.60;;;7.25;;
21190;SDS011;10753;52.304;20.990;2022-08-01T02:12:49;10.25;;;7.07;;
21190;SDS011;10753;52.304;20.990;2022-08-01T02:15:15;8.68;;;6.70;;
21190;SDS011;10753;52.304;20.990;2022-08-01T02:17:43;12.98;;;7.90;;
21190;SDS011;10753;52.304;20.990;2022-08-01T02:20:12;10.73;;;7.88;;
21190;SDS011;10753;52.304;20.990;2022-08-01T02:22:52;9.88;;;6.85;;
21190;SDS011;10753;52.304;20.990;2022-08-01T02:25:23;12.50;;;7.38;;
21190;SDS011;10753;52.304;20.990;2022-08-01T02:30:54;9.55;;;7.47;;
21190;SDS011;10753;52.304;20.990;2022-08-01T02:33:27;10.88;;;7.15;;
21190;SDS011;10753;52.304;20.990;2022-08-01T02:36:05;12.43;;;7.60;;
21190;SDS011;10753;52.304;20.990;2022-08-01T02:38:33;8.60;;;7.60;;
21190;SDS011;10753;52.304;20.990;2022-08-01T02:41:03;13.45;;;7.70;;
21190;SDS011;10753;52.304;20.990;2022-08-01T02:43:34;15.15;;;7.95;;
21190;SDS011;10753;52.304;20.990;2022-08-01T02:46:02;10.82;;;8.02;;
21190;SDS011;10753;52.304;20.990;2022-08-01T02:48:29;13.10;;;8.05;;
21190;SDS011;10753;52.304;20.990;2022-08-01T02:51:00;8.88;;;7.82;;
21190;SDS011;10753;52.304;20.990;2022-08-01T02:53:27;10.45;;;8.00;;
21190;SDS011;10753;52.304;20.990;2022-08-01T02:55:56;11.57;;;8.02;;
21190;SDS011;10753;52.304;20.990;2022-08-01T02:58:23;10.05;;;8.73;;
21190;SDS011;10753;52.304;20.990;2022-08-01T03:00:49;9.55;;;8.25;;
21190;SDS011;10753;52.304;20.990;2022-08-01T03:03:16;10.05;;;8.20;;
21190;SDS011;10753;52.304;20.990;2022-08-01T03:05:43;11.93;;;8.70;;
21190;SDS011;10753;52.304;20.990;2022-08-01T03:08:10;14.15;;;8.40;;
21190;SDS011;10753;52.304;20.990;2022-08-01T03:10:38;13.27;;;8.85;;
21190;SDS011;10753;52.304;20.990;2022-08-01T03:13:06;16.67;;;8.35;;
21190;SDS011;10753;52.304;20.990;2022-08-01T03:15:35;11.50;;;8.48;;
21190;SDS011;10753;52.304;20.990;2022-08-01T03:18:02;16.00;;;8.98;;
21190;SDS011;10753;52.304;20.990;2022-08-01T03:20:31;16.77;;;8.75;;
21190;SDS011;10753;52.304;20.990;2022-08-01T03:23:03;12.95;;;8.65;;
21190;SDS011;10753;52.304;20.990;2022-08-01T03:25:31;14.15;;;9.85;;
21190;SDS011;10753;52.304;20.990;2022-08-01T03:28:01;11.38;;;9.10;;
21190;SDS011;10753;52.304;20.990;2022-08-01T03:30:28;13.00;;;9.15;;
21190;SDS011;10753;52.304;20.990;2022-08-01T03:32:56;13.38;;;8.88;;
21190;SDS011;10753;52.304;20.990;2022-08-01T03:35:22;11.63;;;9.05;;
21190;SDS011;10753;52.304;20.990;2022-08-01T03:37:52;13.63;;;9.85;;
21190;SDS011;10753;52.304;20.990;2022-08-01T03:40:24;12.43;;;9.50;;
21190;SDS011;10753;52.304;20.990;2022-08-01T03:42:52;14.52;;;9.63;;
21190;SDS011;10753;52.304;20.990;2022-08-01T03:45:23;13.88;;;9.73;;
21190;SDS011;10753;52.304;20.990;2022-08-01T03:47:53;17.90;;;8.98;;
21190;SDS011;10753;52.304;20.990;2022-08-01T03:50:31;13.88;;;9.25;;
21190;SDS011;10753;52.304;20.990;2022-08-01T03:53:00;14.20;;;8.70;;
21190;SDS011;10753;52.304;20.990;2022-08-01T03:55:27;13.45;;;9.15;;
21190;SDS011;10753;52.304;20.990;2022-08-01T03:57:54;13.93;;;9.05;;
21190;SDS011;10753;52.304;20.990;2022-08-01T04:00:21;11.23;;;9.20;;
21190;SDS011;10753;52.304;20.990;2022-08-01T04:02:48;13.95;;;8.63;;
21190;SDS011;10753;52.304;20.990;2022-08-01T04:05:15;12.40;;;9.00;;
21190;SDS011;10753;52.304;20.990;2022-08-01T04:07:44;10.48;;;8.50;;
21190;SDS011;10753;52.304;20.990;2022-08-01T04:10:11;15.57;;;9.45;;
21190;SDS011;10753;52.304;20.990;2022-08-01T04:12:37;13.20;;;8.73;;
21190;SDS011;10753;52.304;20.990;2022-08-01T04:15:03;13.88;;;8.40;;
21190;SDS011;10753;52.304;20.990;2022-08-01T04:17:30;12.05;;;8.27;;
21190;SDS011;10753;52.304;20.990;2022-08-01T04:19:56;11.70;;;8.20;;
21190;SDS011;10753;52.304;20.990;2022-08-01T04:22:21;11.55;;;8.10;;
21190;SDS011;10753;52.304;20.990;2022-08-01T04:24:48;10.32;;;7.55;;
21190;SDS011;10753;52.304;20.990;2022-08-01T04:27:20;12.68;;;8.43;;
21190;SDS011;10753;52.304;20.990;2022-08-01T04:29:51;11.68;;;6.85;;
21190;SDS011;10753;52.304;20.990;2022-08-01T04:32:18;13.75;;;7.22;;
21190;SDS011;10753;52.304;20.990;2022-08-01T04:34:46;15.98;;;8.23;;
21190;SDS011;10753;52.304;20.990;2022-08-01T04:37:14;9.23;;;6.82;;
21190;SDS011;10753;52.304;20.990;2022-08-01T04:39:41;11.60;;;6.38;;
21190;SDS011;10753;52.304;20.990;2022-08-01T04:42:09;11.27;;;7.15;;
21190;SDS011;10753;52.304;20.990;2022-08-01T04:44:36;8.80;;;6.85;;
21190;SDS011;10753;52.304;20.990;2022-08-01T04:47:02;11.48;;;6.70;;
21190;SDS011;10753;52.304;20.990;2022-08-01T04:49:33;7.95;;;6.20;;
21190;SDS011;10753;52.304;20.990;2022-08-01T04:51:59;7.13;;;6.43;;
21190;SDS011;10753;52.304;20.990;2022-08-01T04:54:26;9.63;;;6.47;;
21190;SDS011;10753;52.304;20.990;2022-08-01T04:56:53;11.02;;;6.47;;
21190;SDS011;10753;52.304;20.990;2022-08-01T04:59:26;7.28;;;6.30;;
21190;SDS011;10753;52.304;20.990;2022-08-01T05:02:04;13.57;;;6.10;;
21190;SDS011;10753;52.304;20.990;2022-08-01T05:04:30;6.50;;;5.85;;
21190;SDS011;10753;52.304;20.990;2022-08-01T05:06:56;8.10;;;6.43;;
21190;SDS011;10753;52.304;20.990;2022-08-01T05:09:22;10.57;;;7.45;;
21190;SDS011;10753;52.304;20.990;2022-08-01T05:11:47;12.40;;;7.00;;
21190;SDS011;10753;52.304;20.990;2022-08-01T05:14:13;9.82;;;7.03;;
21190;SDS011;10753;52.304;20.990;2022-08-01T05:16:38;7.05;;;6.45;;
21190;SDS011;10753;52.304;20.990;2022-08-01T05:19:04;7.53;;;6.63;;
21190;SDS011;10753;52.304;20.990;2022-08-01T05:21:29;11.88;;;6.55;;
21190;SDS011;10753;52.304;20.990;2022-08-01T05:23:55;10.43;;;7.68;;
21190;SDS011;10753;52.304;20.990;2022-08-01T05:26:21;13.15;;;7.40;;
21190;SDS011;10753;52.304;20.990;2022-08-01T05:28:46;9.45;;;8.10;;
21190;SDS011;10753;52.304;20.990;2022-08-01T05:31:12;10.23;;;7.15;;
21190;SDS011;10753;52.304;20.990;2022-08-01T05:33:37;7.57;;;6.88;;
21190;SDS011;10753;52.304;20.990;2022-08-01T05:36:03;7.57;;;6.63;;
21190;SDS011;10753;52.304;20.990;2022-08-01T05:38:29;9.10;;;6.25;;
21190;SDS011;10753;52.304;20.990;2022-08-01T05:40:55;11.43;;;6.25;;
21190;SDS011;10753;52.304;20.990;2022-08-01T05:43:20;9.18;;;6.55;;
21190;SDS011;10753;52.304;20.990;2022-08-01T05:45:49;10.88;;;6.30;;
21190;SDS011;10753;52.304;20.990;2022-08-01T05:48:14;8.43;;;6.53;;
21190;SDS011;10753;52.304;20.990;2022-08-01T05:50:40;10.35;;;6.82;;
21190;SDS011;10753;52.304;20.990;2022-08-01T05:53:05;8.85;;;6.20;;
21190;SDS011;10753;52.304;20.990;2022-08-01T05:55:31;7.57;;;5.90;;
21190;SDS011;10753;52.304;20.990;2022-08-01T05:57:57;7.55;;;6.10;;
21190;SDS011;10753;52.304;20.990;2022-08-01T06:00:22;6.57;;;5.88;;
21190;SDS011;10753;52.304;20.990;2022-08-01T06:02:48;6.75;;;6.03;;
21190;SDS011;10753;52.304;20.990;2022-08-01T06:05:13;8.50;;;5.05;;
21190;SDS011;10753;52.304;20.990;2022-08-01T06:07:39;6.45;;;4.88;;
21190;SDS011;10753;52.304;20.990;2022-08-01T06:10:05;7.47;;;4.90;;
21190;SDS011;10753;52.304;20.990;2022-08-01T06:12:32;9.60;;;5.18;;
21190;SDS011;10753;52.304;20.990;2022-08-01T06:14:58;12.88;;;5.35;;
21190;SDS011;10753;52.304;20.990;2022-08-01T06:17:24;7.65;;;5.15;;
21190;SDS011;10753;52.304;20.990;2022-08-01T06:19:50;6.07;;;4.53;;
21190;SDS011;10753;52.304;20.990;2022-08-01T06:22:16;6.57;;;4.70;;
21190;SDS011;10753;52.304;20.990;2022-08-01T06:24:41;4.78;;;4.15;;
21190;SDS011;10753;52.304;20.990;2022-08-01T06:27:07;8.07;;;4.80;;
21190;SDS011;10753;52.304;20.990;2022-08-01T06:29:32;4.88;;;4.00;;
21190;SDS011;10753;52.304;20.990;2022-08-01T06:31:58;4.65;;;3.85;;
21190;SDS011;10753;52.304;20.990;2022-08-01T06:34:24;4.68;;;3.47;;
21190;SDS011;10753;52.304;20.990;2022-08-01T06:36:49;6.10;;;3.88;;
21190;SDS011;10753;52.304;20.990;2022-08-01T06:39:15;5.35;;;3.80;;
21190;SDS011;10753;52.304;20.990;2022-08-01T06:41:40;5.35;;;4.18;;
21190;SDS011;10753;52.304;20.990;2022-08-01T06:44:06;5.47;;;3.13;;
21190;SDS011;10753;52.304;20.990;2022-08-01T06:46:32;9.55;;;3.25;;
21190;SDS011;10753;52.304;20.990;2022-08-01T06:48:59;3.67;;;3.05;;
21190;SDS011;10753;52.304;20.990;2022-08-01T06:51:25;6.72;;;2.70;;
21190;SDS011;10753;52.304;20.990;2022-08-01T06:53:50;5.82;;;2.83;;
21190;SDS011;10753;52.304;20.990;2022-08-01T06:56:16;6.63;;;2.83;;
21190;SDS011;10753;52.304;20.990;2022-08-01T06:58:42;5.10;;;2.70;;
21190;SDS011;10753;52.304;20.990;2022-08-01T07:01:07;5.43;;;2.80;;
21190;SDS011;10753;52.304;20.990;2022-08-01T07:03:33;9.05;;;2.95;;
21190;SDS011;10753;52.304;20.990;2022-08-01T07:05:59;3.97;;;2.78;;
21190;SDS011;10753;52.304;20.990;2022-08-01T07:08:25;6.55;;;3.03;;
21190;SDS011;10753;52.304;20.990;2022-08-01T07:10:51;7.38;;;2.63;;
21190;SDS011;10753;52.304;20.990;2022-08-01T07:13:16;3.40;;;2.00;;
21190;SDS011;10753;52.304;20.990;2022-08-01T07:15:46;5.45;;;2.05;;
21190;SDS011;10753;52.304;20.990;2022-08-01T07:18:12;4.32;;;2.00;;
21190;SDS011;10753;52.304;20.990;2022-08-01T07:20:38;4.78;;;2.40;;
21190;SDS011;10753;52.304;20.990;2022-08-01T07:23:03;3.05;;;2.13;;
21190;SDS011;10753;52.304;20.990;2022-08-01T07:25:29;3.30;;;1.95;;
21190;SDS011;10753;52.304;20.990;2022-08-01T07:27:55;3.88;;;2.30;;
21190;SDS011;10753;52.304;20.990;2022-08-01T07:30:20;3.42;;;1.90;;
21190;SDS011;10753;52.304;20.990;2022-08-01T07:32:46;4.00;;;1.55;;
21190;SDS011;10753;52.304;20.990;2022-08-01T07:35:12;3.50;;;1.80;;
21190;SDS011;10753;52.304;20.990;2022-08-01T07:37:38;5.82;;;2.65;;
21190;SDS011;10753;52.304;20.990;2022-08-01T07:40:03;5.25;;;2.28;;
21190;SDS011;10753;52.304;20.990;2022-08-01T07:42:30;5.03;;;2.20;;
21190;SDS011;10753;52.304;20.990;2022-08-01T07:44:56;8.82;;;2.60;;
21190;SDS011;10753;52.304;20.990;2022-08-01T07:47:25;24.83;;;22.40;;
21190;SDS011;10753;52.304;20.990;2022-08-01T07:49:51;3.92;;;1.80;;
21190;SDS011;10753;52.304;20.990;2022-08-01T07:52:17;3.40;;;1.88;;
21190;SDS011;10753;52.304;20.990;2022-08-01T07:54:43;2.90;;;1.98;;
21190;SDS011;10753;52.304;20.990;2022-08-01T07:57:09;3.97;;;1.83;;
21190;SDS011;10753;52.304;20.990;2022-08-01T07:59:34;3.83;;;2.28;;
21190;SDS011;10753;52.304;20.990;2022-08-01T08:02:00;4.35;;;1.80;;
21190;SDS011;10753;52.304;20.990;2022-08-01T08:04:26;2.40;;;2.05;;
21190;SDS011;10753;52.304;20.990;2022-08-01T08:06:53;5.72;;;1.70;;
21190;SDS011;10753;52.304;20.990;2022-08-01T08:09:19;4.88;;;1.63;;
21190;SDS011;10753;52.304;20.990;2022-08-01T08:11:45;1.60;;;1.23;;
21190;SDS011;10753;52.304;20.990;2022-08-01T08:14:11;5.68;;;1.30;;
21190;SDS011;10753;52.304;20.990;2022-08-01T08:16:37;1.50;;;1.13;;
21190;SDS011;10753;52.304;20.990;2022-08-01T08:19:03;3.92;;;1.35;;
21190;SDS011;10753;52.304;20.990;2022-08-01T08:21:30;2.35;;;1.20;;
21190;SDS011;10753;52.304;20.990;2022-08-01T08:23:55;2.22;;;1.40;;
21190;SDS011;10753;52.304;20.990;2022-08-01T08:26:39;2.50;;;1.60;;
21190;SDS011;10753;52.304;20.990;2022-08-01T08:29:05;4.55;;;1.90;;
21190;SDS011;10753;52.304;20.990;2022-08-01T08:31:31;8.30;;;1.50;;
21190;SDS011;10753;52.304;20.990;2022-08-01T08:33:57;1.73;;;1.30;;
21190;SDS011;10753;52.304;20.990;2022-08-01T08:36:23;2.80;;;1.40;;
21190;SDS011;10753;52.304;20.990;2022-08-01T08:38:49;4.05;;;1.48;;
21190;SDS011;10753;52.304;20.990;2022-08-01T08:41:14;4.90;;;1.50;;
21190;SDS011;10753;52.304;20.990;2022-08-01T08:43:40;31.95;;;28.83;;
21190;SDS011;10753;52.304;20.990;2022-08-01T08:46:06;2.05;;;1.60;;
21190;SDS011;10753;52.304;20.990;2022-08-01T08:48:33;3.72;;;1.60;;
21190;SDS011;10753;52.304;20.990;2022-08-01T08:51:00;1.83;;;1.45;;
21190;SDS011;10753;52.304;20.990;2022-08-01T08:53:27;3.92;;;1.55;;
21190;SDS011;10753;52.304;20.990;2022-08-01T08:55:54;4.70;;;3.30;;
21190;SDS011;10753;52.304;20.990;2022-08-01T08:58:21;4.15;;;2.33;;
21190;SDS011;10753;52.304;20.990;2022-08-01T09:00:49;1.98;;;1.75;;
21190;SDS011;10753;52.304;20.990;2022-08-01T09:03:15;4.53;;;1.40;;
21190;SDS011;10753;52.304;20.990;2022-08-01T09:05:41;2.65;;;1.42;;
21190;SDS011;10753;52.304;20.990;2022-08-01T09:08:08;3.50;;;1.20;;
21190;SDS011;10753;52.304;20.990;2022-08-01T09:10:33;2.13;;;1.60;;
21190;SDS011;10753;52.304;20.990;2022-08-01T09:13:03;3.88;;;1.40;;
21190;SDS011;10753;52.304;20.990;2022-08-01T09:15:47;5.70;;;1.42;;
21190;SDS011;10753;52.304;20.990;2022-08-01T09:18:31;1.42;;;1.33;;
21190;SDS011;10753;52.304;20.990;2022-08-01T09:23:47;2.35;;;1.38;;
21190;SDS011;10753;52.304;20.990;2022-08-01T09:26:38;2.85;;;1.30;;
21190;SDS011;10753;52.304;20.990;2022-08-01T09:29:04;3.63;;;1.50;;
21190;SDS011;10753;52.304;20.990;2022-08-01T09:31:39;3.10;;;1.35;;
21190;SDS011;10753;52.304;20.990;2022-08-01T09:34:09;3.28;;;1.30;;
21190;SDS011;10753;52.304;20.990;2022-08-01T09:36:46;5.90;;;1.48;;
21190;SDS011;10753;52.304;20.990;2022-08-01T09:39:16;2.85;;;1.40;;
21190;SDS011;10753;52.304;20.990;2022-08-01T09:41:46;5.07;;;1.83;;
21190;SDS011;10753;52.304;20.990;2022-08-01T09:44:13;5.30;;;1.65;;
21190;SDS011;10753;52.304;20.990;2022-08-01T09:46:54;8.40;;;1.48;;
21190;SDS011;10753;52.304;20.990;2022-08-01T09:49:33;2.35;;;1.20;;
21190;SDS011;10753;52.304;20.990;2022-08-01T09:52:13;2.85;;;1.40;;
21190;SDS011;10753;52.304;20.990;2022-08-01T09:54:41;2.15;;;1.40;;
21190;SDS011;10753;52.304;20.990;2022-08-01T09:57:08;2.50;;;1.13;;
21190;SDS011;10753;52.304;20.990;2022-08-01T09:59:36;6.03;;;1.27;;
21190;SDS011;10753;52.304;20.990;2022-08-01T10:02:05;3.60;;;1.30;;
21190;SDS011;10753;52.304;20.990;2022-08-01T10:04:32;5.28;;;1.50;;
21190;SDS011;10753;52.304;20.990;2022-08-01T10:07:06;6.15;;;1.70;;
21190;SDS011;10753;52.304;20.990;2022-08-01T10:09:33;4.97;;;1.70;;
21190;SDS011;10753;52.304;20.990;2022-08-01T10:12:01;3.22;;;1.50;;
21190;SDS011;10753;52.304;20.990;2022-08-01T10:14:28;4.03;;;1.75;;
21190;SDS011;10753;52.304;20.990;2022-08-01T10:16:56;3.25;;;1.65;;
21190;SDS011;10753;52.304;20.990;2022-08-01T10:19:24;2.55;;;1.30;;
21190;SDS011;10753;52.304;20.990;2022-08-01T10:21:51;2.22;;;1.45;;
21190;SDS011;10753;52.304;20.990;2022-08-01T10:24:19;2.90;;;1.60;;
21190;SDS011;10753;52.304;20.990;2022-08-01T10:26:55;2.72;;;1.52;;
21190;SDS011;10753;52.304;20.990;2022-08-01T10:29:31;4.90;;;1.40;;
21190;SDS011;10753;52.304;20.990;2022-08-01T10:32:03;1.70;;;1.33;;
21190;SDS011;10753;52.304;20.990;2022-08-01T10:34:31;2.13;;;1.33;;
21190;SDS011;10753;52.304;20.990;2022-08-01T10:36:58;2.50;;;1.40;;
21190;SDS011;10753;52.304;20.990;2022-08-01T10:39:25;4.45;;;1.55;;
21190;SDS011;10753;52.304;20.990;2022-08-01T10:41:53;2.83;;;1.30;;
21190;SDS011;10753;52.304;20.990;2022-08-01T10:44:20;2.13;;;1.50;;
21190;SDS011;10753;52.304;20.990;2022-08-01T10:46:46;3.05;;;1.50;;
21190;SDS011;10753;52.304;20.990;2022-08-01T10:49:15;1.88;;;1.52;;
21190;SDS011;10753;52.304;20.990;2022-08-01T10:51:44;2.15;;;1.48;;
21190;SDS011;10753;52.304;20.990;2022-08-01T10:54:11;2.97;;;1.40;;
21190;SDS011;10753;52.304;20.990;2022-08-01T10:56:44;3.10;;;1.60;;
21190;SDS011;10753;52.304;20.990;2022-08-01T10:59:14;3.15;;;1.35;;
21190;SDS011;10753;52.304;20.990;2022-08-01T11:02:04;5.78;;;1.90;;
21190;SDS011;10753;52.304;20.990;2022-08-01T11:07:13;4.30;;;1.40;;
21190;SDS011;10753;52.304;20.990;2022-08-01T11:09:43;4.10;;;1.40;;
21190;SDS011;10753;52.304;20.990;2022-08-01T11:12:13;3.05;;;1.33;;
21190;SDS011;10753;52.304;20.990;2022-08-01T11:17:35;2.05;;;1.42;;
21190;SDS011;10753;52.304;20.990;2022-08-01T11:20:23;2.72;;;1.70;;
21190;SDS011;10753;52.304;20.990;2022-08-01T11:26:10;2.00;;;1.23;;
21190;SDS011;10753;52.304;20.990;2022-08-01T11:38:41;3.47;;;1.30;;
21190;SDS011;10753;52.304;20.990;2022-08-01T11:41:23;1.98;;;1.42;;
21190;SDS011;10753;52.304;20.990;2022-08-01T11:44:00;5.50;;;1.90;;
21190;SDS011;10753;52.304;20.990;2022-08-01T11:49:31;1.48;;;1.38;;
21190;SDS011;10753;52.304;20.990;2022-08-01T11:57:40;2.08;;;1.30;;
21190;SDS011;10753;52.304;20.990;2022-08-01T12:00:17;2.47;;;1.20;;
21190;SDS011;10753;52.304;20.990;2022-08-01T12:02:44;1.90;;;1.30;;
21190;SDS011;10753;52.304;20.990;2022-08-01T12:05:11;1.75;;;1.30;;
21190;SDS011;10753;52.304;20.990;2022-08-01T12:07:39;1.98;;;1.40;;
21190;SDS011;10753;52.304;20.990;2022-08-01T12:12:46;3.17;;;1.30;;
21190;SDS011;10753;52.304;20.990;2022-08-01T12:15:13;2.88;;;1.30;;
21190;SDS011;10753;52.304;20.990;2022-08-01T12:17:40;3.40;;;1.38;;
21190;SDS011;10753;52.304;20.990;2022-08-01T12:20:07;4.10;;;1.20;;
21190;SDS011;10753;52.304;20.990;2022-08-01T12:22:35;2.67;;;1.60;;
21190;SDS011;10753;52.304;20.990;2022-08-01T12:25:19;1.42;;;1.00;;
21190;SDS011;10753;52.304;20.990;2022-08-01T12:27:45;1.35;;;1.02;;
21190;SDS011;10753;52.304;20.990;2022-08-01T12:30:19;1.60;;;1.50;;
21190;SDS011;10753;52.304;20.990;2022-08-01T12:32:52;4.60;;;1.48;;
21190;SDS011;10753;52.304;20.990;2022-08-01T12:35:19;2.92;;;1.30;;
21190;SDS011;10753;52.304;20.990;2022-08-01T12:37:50;3.85;;;1.52;;
21190;SDS011;10753;52.304;20.990;2022-08-01T12:42:50;2.75;;;1.50;;
21190;SDS011;10753;52.304;20.990;2022-08-01T12:45:21;3.65;;;1.48;;
21190;SDS011;10753;52.304;20.990;2022-08-01T12:47:50;2.95;;;1.38;;
21190;SDS011;10753;52.304;20.990;2022-08-01T12:50:20;2.13;;;1.10;;
21190;SDS011;10753;52.304;20.990;2022-08-01T12:52:47;2.08;;;1.38;;
21190;SDS011;10753;52.304;20.990;2022-08-01T12:55:20;3.10;;;1.80;;
21190;SDS011;10753;52.304;20.990;2022-08-01T12:57:49;3.40;;;1.38;;
21190;SDS011;10753;52.304;20.990;2022-08-01T13:00:27;1.40;;;1.20;;
21190;SDS011;10753;52.304;20.990;2022-08-01T13:08:17;2.40;;;1.20;;
21190;SDS011;10753;52.304;20.990;2022-08-01T13:10:48;2.83;;;1.60;;
21190;SDS011;10753;52.304;20.990;2022-08-01T13:13:15;4.28;;;1.50;;
21190;SDS011;10753;52.304;20.990;2022-08-01T13:15:42;5.88;;;1.40;;
21190;SDS011;10753;52.304;20.990;2022-08-01T13:18:21;2.47;;;1.40;;
21190;SDS011;10753;52.304;20.990;2022-08-01T13:21:07;3.47;;;1.60;;
21190;SDS011;10753;52.304;20.990;2022-08-01T13:23:38;2.45;;;1.60;;
21190;SDS011;10753;52.304;20.990;2022-08-01T13:26:05;4.28;;;1.42;;
21190;SDS011;10753;52.304;20.990;2022-08-01T13:28:31;2.58;;;1.63;;
21190;SDS011;10753;52.304;20.990;2022-08-01T13:31:01;2.15;;;1.95;;
21190;SDS011;10753;52.304;20.990;2022-08-01T13:33:39;2.20;;;1.60;;
21190;SDS011;10753;52.304;20.990;2022-08-01T13:36:11;2.67;;;1.60;;
21190;SDS011;10753;52.304;20.990;2022-08-01T13:38:38;2.97;;;1.80;;
21190;SDS011;10753;52.304;20.990;2022-08-01T13:41:23;9.48;;;8.57;;
21190;SDS011;10753;52.304;20.990;2022-08-01T13:43:48;5.07;;;1.42;;
21190;SDS011;10753;52.304;20.990;2022-08-01T13:46:14;2.92;;;2.50;;
21190;SDS011;10753;52.304;20.990;2022-08-01T13:48:40;4.10;;;2.15;;
21190;SDS011;10753;52.304;20.990;2022-08-01T13:51:06;6.25;;;2.17;;
21190;SDS011;10753;52.304;20.990;2022-08-01T13:53:32;4.32;;;2.83;;
21190;SDS011;10753;52.304;20.990;2022-08-01T13:55:57;13.52;;;2.20;;
21190;SDS011;10753;52.304;20.990;2022-08-01T13:58:23;4.15;;;2.13;;
21190;SDS011;10753;52.304;20.990;2022-08-01T14:00:49;2.83;;;2.40;;
21190;SDS011;10753;52.304;20.990;2022-08-01T14:03:14;2.80;;;2.38;;
21190;SDS011;10753;52.304;20.990;2022-08-01T14:05:41;5.80;;;3.05;;
21190;SDS011;10753;52.304;20.990;2022-08-01T14:08:10;3.63;;;2.80;;
21190;SDS011;10753;52.304;20.990;2022-08-01T14:10:36;3.22;;;2.67;;
21190;SDS011;10753;52.304;20.990;2022-08-01T14:13:02;3.67;;;2.45;;
21190;SDS011;10753;52.304;20.990;2022-08-01T14:15:28;2.85;;;2.45;;
21190;SDS011;10753;52.304;20.990;2022-08-01T14:17:53;2.65;;;2.45;;
21190;SDS011;10753;52.304;20.990;2022-08-01T14:20:19;4.22;;;2.60;;
21190;SDS011;10753;52.304;20.990;2022-08-01T14:22:45;2.95;;;2.63;;
21190;SDS011;10753;52.304;20.990;2022-08-01T14:25:11;4.18;;;2.67;;
21190;SDS011;10753;52.304;20.990;2022-08-01T14:27:37;3.13;;;2.60;;
21190;SDS011;10753;52.304;20.990;2022-08-01T14:30:05;5.50;;;2.30;;
21190;SDS011;10753;52.304;20.990;2022-08-01T14:32:32;5.07;;;2.60;;
21190;SDS011;10753;52.304;20.990;2022-08-01T14:34:58;3.53;;;2.58;;
21190;SDS011;10753;52.304;20.990;2022-08-01T14:37:25;3.70;;;3.10;;
21190;SDS011;10753;52.304;20.990;2022-08-01T14:39:50;8.70;;;3.20;;
21190;SDS011;10753;52.304;20.990;2022-08-01T14:42:16;4.53;;;2.97;;
21190;SDS011;10753;52.304;20.990;2022-08-01T14:44:42;4.70;;;2.70;;
21190;SDS011;10753;52.304;20.990;2022-08-01T14:47:07;4.55;;;2.65;;
21190;SDS011;10753;52.304;20.990;2022-08-01T14:49:33;4.57;;;2.70;;
21190;SDS011;10753;52.304;20.990;2022-08-01T14:51:58;2.42;;;2.22;;
21190;SDS011;10753;52.304;20.990;2022-08-01T14:54:24;5.18;;;2.78;;
21190;SDS011;10753;52.304;20.990;2022-08-01T14:56:50;4.32;;;2.67;;
21190;SDS011;10753;52.304;20.990;2022-08-01T14:59:17;5.07;;;2.80;;
21190;SDS011;10753;52.304;20.990;2022-08-01T15:01:44;3.25;;;2.75;;
21190;SDS011;10753;52.304;20.990;2022-08-01T15:04:09;2.67;;;2.47;;
21190;SDS011;10753;52.304;20.990;2022-08-01T15:06:35;2.72;;;2.47;;
21190;SDS011;10753;52.304;20.990;2022-08-01T15:09:01;4.25;;;2.50;;
21190;SDS011;10753;52.304;20.990;2022-08-01T15:11:27;3.58;;;2.50;;
21190;SDS011;10753;52.304;20.990;2022-08-01T15:13:53;3.65;;;2.20;;
21190;SDS011;10753;52.304;20.990;2022-08-01T15:16:37;3.28;;;2.63;;
21190;SDS011;10753;52.304;20.990;2022-08-01T15:19:03;2.60;;;2.40;;
21190;SDS011;10753;52.304;20.990;2022-08-01T15:21:29;3.20;;;2.83;;
21190;SDS011;10753;52.304;20.990;2022-08-01T15:23:55;5.72;;;3.03;;
21190;SDS011;10753;52.304;20.990;2022-08-01T15:26:20;4.95;;;2.80;;
21190;SDS011;10753;52.304;20.990;2022-08-01T15:28:46;3.97;;;3.38;;
21190;SDS011;10753;52.304;20.990;2022-08-01T15:31:12;6.03;;;3.58;;